VTSR

Ranong Airport

Thailand
TAF VTSR 201700Z 2018/2118 VRB04KT 9999 FEW025 BECMG 2106/2108 08006KT
Issued Valid From Valid To
Jan-20 @ 17:00 UTC
(4 hours ago)
Jan-20 @ 18:00 UTC
(3 hours ago)
Jan-21 @ 18:00 UTC
(in 21 hours)
Jan-20 @ 18:00 to Jan-21 @ 06:00
TAF VTSR 201700Z 2018/2118 VRB04KT 9999 FEW025
Wind Visibility Clouds
Variable at 4 knots 10,000+ meters
  • Few at 2,500' AGL
Becoming Jan-21 @ 06:00 to Jan-21 @ 18:00
BECMG 2106/2108 08006KT
Wind Visibility Clouds
80° at 6 knots 10,000+ meters
  • Few at 2,500' AGL
TAF VTSR 201700Z 2018/2118 VRB04KT 9999 FEW025 BECMG 2106/2108 08006KT
Issued Jan-20 @ 17:00 UTC
(4 hours ago)
Valid From Jan-20 @ 18:00 UTC
(3 hours ago)
Valid To Jan-21 @ 18:00 UTC
(in 21 hours)
Jan-20 @ 18:00 - Jan-21 @ 06:00
Wind Visibility
Variable at 4 knots 10,000+ meters
Clouds
  • Few at 2,500' AGL
Becoming Jan-21 @ 06:00 - Jan-21 @ 18:00
Wind Visibility
80° at 6 knots 10,000+ meters
Clouds
  • Few at 2,500' AGL